createdAt,value
2019-01-10T00:04:04.634Z,1.60
2019-01-10T00:07:12.967Z,1.60
2019-01-10T00:10:21.327Z,1.60
2019-01-10T00:13:10.154Z,1.60
2019-01-10T00:15:59.268Z,1.60
2019-01-10T00:18:48.179Z,1.50
2019-01-10T00:21:37.024Z,1.50
2019-01-10T00:24:25.875Z,1.60
2019-01-10T00:27:14.862Z,1.60
2019-01-10T00:30:23.204Z,1.60
2019-01-10T00:33:05.894Z,1.60
2019-01-10T00:35:54.753Z,1.60
2019-01-10T00:38:43.582Z,1.60
2019-01-10T00:41:32.462Z,1.60
2019-01-10T00:44:21.422Z,1.60
2019-01-10T00:47:10.258Z,1.60
2019-01-10T00:50:39.273Z,1.60
2019-01-10T00:53:47.555Z,1.60
2019-01-10T00:56:36.486Z,1.60
2019-01-10T00:59:25.447Z,1.50
2019-01-10T01:02:14.366Z,1.50
2019-01-10T01:05:22.992Z,1.50
2019-01-10T01:08:11.896Z,1.60
2019-01-10T01:11:00.899Z,1.50
2019-01-10T01:13:49.874Z,1.40
2019-01-10T01:16:38.871Z,1.50
2019-01-10T01:19:47.214Z,1.50
2019-01-10T01:22:36.215Z,1.40
2019-01-10T01:25:44.555Z,1.40
2019-01-10T01:28:52.947Z,1.40
2019-01-10T01:31:55.115Z,1.40
2019-01-10T01:34:44.081Z,1.30
2019-01-10T01:37:33.046Z,1.30
2019-01-10T01:40:21.945Z,1.30
2019-01-10T01:43:30.274Z,1.30
2019-01-10T01:46:19.188Z,1.30
2019-01-10T01:49:08.098Z,1.30
2019-01-10T01:51:56.954Z,1.30
2019-01-10T01:54:45.785Z,1.40
2019-01-10T01:57:34.775Z,1.30
2019-01-10T02:00:43.127Z,1.20
2019-01-10T02:03:32.174Z,1.20
2019-01-10T02:06:21.075Z,1.20
2019-01-10T02:12:10.396Z,1.20
2019-01-10T02:14:59.258Z,1.20
2019-01-10T02:17:49.142Z,1.30
2019-01-10T02:20:58.135Z,1.30
2019-01-10T02:24:06.498Z,1.20
2019-01-10T02:30:04.182Z,1.30
2019-01-10T02:33:04.167Z,1.30
2019-01-10T02:35:53.016Z,1.30
2019-01-10T02:38:41.887Z,1.30
2019-01-10T02:41:30.715Z,1.30
2019-01-10T02:44:19.683Z,1.30
2019-01-10T02:47:08.522Z,1.30
2019-01-10T02:49:57.513Z,1.30
2019-01-10T02:52:46.580Z,1.40
2019-01-10T02:55:35.469Z,1.30
2019-01-10T02:58:17.638Z,1.30
2019-01-10T03:01:06.744Z,1.30
2019-01-10T03:07:03.749Z,1.30
2019-01-10T03:09:52.578Z,1.30
2019-01-10T03:12:41.503Z,1.30
2019-01-10T03:15:49.785Z,1.30
2019-01-10T03:18:38.616Z,1.30
2019-01-10T03:21:27.478Z,1.30
2019-01-10T03:24:16.314Z,1.30
2019-01-10T03:27:24.600Z,1.30
2019-01-10T03:30:34.228Z,1.30
2019-01-10T03:33:36.153Z,1.30
2019-01-10T03:36:24.999Z,1.30
2019-01-10T03:39:33.279Z,1.20
2019-01-10T03:42:41.641Z,1.20
2019-01-10T03:45:30.526Z,1.40
2019-01-10T03:48:19.447Z,1.20
2019-01-10T03:51:08.342Z,1.20
2019-01-10T03:53:57.269Z,1.30
2019-01-10T03:56:46.242Z,1.30
2019-01-10T03:59:54.514Z,1.30
2019-01-10T04:03:02.933Z,1.30
2019-01-10T04:05:52.204Z,1.30
2019-01-10T04:08:41.061Z,1.30
2019-01-10T04:11:30.119Z,1.30
2019-01-10T04:14:18.991Z,1.30
2019-01-10T04:17:07.975Z,1.20
2019-01-10T04:19:56.891Z,1.10
2019-01-10T04:22:45.917Z,1.10
2019-01-10T04:25:34.845Z,1.10
2019-01-10T04:28:23.867Z,1.10
2019-01-10T04:31:32.176Z,1.10
2019-01-10T04:34:14.429Z,1.00
2019-01-10T04:37:03.383Z,1.00
2019-01-10T04:40:32.415Z,0.90
2019-01-10T04:43:21.248Z,1.00
2019-01-10T04:46:29.610Z,1.00
2019-01-10T04:49:18.469Z,1.00
2019-01-10T04:55:34.694Z,1.00
2019-01-10T04:58:23.524Z,1.00
2019-01-10T05:01:12.507Z,1.00
2019-01-10T05:04:01.441Z,1.00
2019-01-10T05:06:50.422Z,1.00
2019-01-10T05:09:19.989Z,0.90
2019-01-10T05:12:08.925Z,0.90
2019-01-10T05:14:57.820Z,1.00
2019-01-10T05:17:46.754Z,1.00
2019-01-10T05:20:35.587Z,1.00
2019-01-10T05:23:24.528Z,1.00
2019-01-10T05:26:32.829Z,0.90
2019-01-10T05:29:21.648Z,1.00
2019-01-10T05:32:29.932Z,1.00
2019-01-10T05:38:26.766Z,1.00
2019-01-10T05:41:15.744Z,1.10
2019-01-10T05:44:04.724Z,1.00
2019-01-10T05:46:53.767Z,1.00
2019-01-10T05:49:42.594Z,1.10
2019-01-10T05:52:50.936Z,0.80
2019-01-10T05:55:39.843Z,1.10
2019-01-10T05:58:42.046Z,1.10
2019-01-10T06:01:30.957Z,1.10
2019-01-10T06:04:39.299Z,1.10
2019-01-10T06:07:47.588Z,1.10
2019-01-10T06:10:36.418Z,1.10
2019-01-10T06:13:44.714Z,1.10
2019-01-10T06:16:52.984Z,1.10
2019-01-10T06:19:41.908Z,1.10
2019-01-10T06:22:30.734Z,1.10
2019-01-10T06:25:19.681Z,1.00
2019-01-10T06:28:08.621Z,1.10
2019-01-10T06:30:57.435Z,1.10
2019-01-10T06:33:39.784Z,1.00
2019-01-10T06:36:28.614Z,1.10
2019-01-10T06:39:19.667Z,1.10
2019-01-10T06:42:27.589Z,1.10
2019-01-10T06:45:11.225Z,1.10
2019-01-10T06:48:00.062Z,1.00
2019-01-10T06:50:48.912Z,1.00
2019-01-10T06:53:37.809Z,1.00
2019-01-10T06:56:26.731Z,1.00
2019-01-10T06:59:09.067Z,1.00
2019-01-10T07:01:58.027Z,1.00
2019-01-10T07:04:46.945Z,1.10
2019-01-10T07:07:56.671Z,1.00
2019-01-10T07:11:05.347Z,1.00
2019-01-10T07:13:54.189Z,1.00
2019-01-10T07:16:43.022Z,1.00
2019-01-10T07:19:51.059Z,1.00
2019-01-10T07:22:59.310Z,1.10
2019-01-10T07:26:08.888Z,1.10
2019-01-10T07:28:57.840Z,1.10
2019-01-10T07:31:46.844Z,1.10
2019-01-10T07:34:29.363Z,1.20
2019-01-10T07:37:18.251Z,1.20
2019-01-10T07:40:28.057Z,1.20
2019-01-10T07:43:37.726Z,1.10
2019-01-10T07:46:26.727Z,1.10
2019-01-10T07:49:15.618Z,1.00
2019-01-10T07:52:16.461Z,1.10
2019-01-10T07:55:14.704Z,1.10
2019-01-10T07:57:57.062Z,1.00
2019-01-10T08:00:46.063Z,1.10
2019-01-10T08:03:36.554Z,1.10
2019-01-10T08:09:52.897Z,1.20
2019-01-10T08:13:01.298Z,1.30
2019-01-10T08:16:09.697Z,1.30
2019-01-10T08:18:58.842Z,1.40
2019-01-10T08:22:07.095Z,1.40
2019-01-10T08:24:56.036Z,1.40
2019-01-10T08:27:44.956Z,1.50
2019-01-10T08:30:35.494Z,1.60
2019-01-10T08:33:37.423Z,1.60
2019-01-10T08:36:32.346Z,1.60
2019-01-10T08:39:36.299Z,1.60
2019-01-10T08:42:44.558Z,1.50
2019-01-10T08:45:33.570Z,1.50
2019-01-10T08:48:22.538Z,1.50
2019-01-10T08:51:11.483Z,1.50
2019-01-10T08:54:19.780Z,1.50
2019-01-10T08:57:08.750Z,1.50
2019-01-10T08:59:57.652Z,1.60
2019-01-10T09:02:46.716Z,1.60
2019-01-10T09:08:43.640Z,1.70
2019-01-10T09:11:32.707Z,1.80
2019-01-10T09:14:21.790Z,1.80
2019-01-10T09:17:30.066Z,1.90
2019-01-10T09:20:19.019Z,2.00
2019-01-10T09:23:07.928Z,2.10
2019-01-10T09:29:16.695Z,2.20
2019-01-10T09:34:59.166Z,2.40
2019-01-10T09:37:48.015Z,2.40
2019-01-10T09:40:37.118Z,2.50
2019-01-10T09:43:26.105Z,2.50
2019-01-10T09:46:14.952Z,2.60
2019-01-10T09:49:23.293Z,2.60
2019-01-10T09:52:12.312Z,2.70
2019-01-10T09:55:20.713Z,2.50
2019-01-10T09:58:09.772Z,2.50
2019-01-10T10:04:06.907Z,2.60
2019-01-10T10:06:55.775Z,2.80
2019-01-10T10:10:24.763Z,2.80
2019-01-10T10:13:13.670Z,2.90
2019-01-10T10:16:02.583Z,3.10
2019-01-10T10:18:51.483Z,3.20
2019-01-10T10:21:59.731Z,3.20
2019-01-10T10:25:08.083Z,3.20
2019-01-10T10:27:56.951Z,3.20
2019-01-10T10:30:45.856Z,3.30
2019-01-10T10:33:28.593Z,3.50
2019-01-10T10:36:17.495Z,3.50
2019-01-10T10:39:25.781Z,3.50
2019-01-10T10:45:43.781Z,3.70
2019-01-10T10:48:32.734Z,3.80
2019-01-10T10:51:21.710Z,3.70
2019-01-10T10:54:30.035Z,3.80
2019-01-10T10:57:38.414Z,3.80
2019-01-10T11:00:46.719Z,3.80
2019-01-10T11:03:55.084Z,3.90
2019-01-10T11:07:03.418Z,4.00
2019-01-10T11:12:54.897Z,4.00
2019-01-10T11:15:43.842Z,4.00
2019-01-10T11:18:32.863Z,4.00
2019-01-10T11:21:21.862Z,4.20
2019-01-10T11:27:18.886Z,4.40
2019-01-10T11:30:27.255Z,4.60
2019-01-10T11:33:16.167Z,4.60
2019-01-10T11:36:05.118Z,4.60
2019-01-10T11:39:13.451Z,4.50
2019-01-10T11:41:43.007Z,4.30
2019-01-10T11:44:31.999Z,4.40
2019-01-10T11:47:40.277Z,4.40
2019-01-10T11:50:29.354Z,4.60
2019-01-10T11:56:26.251Z,4.80
2019-01-10T12:02:03.620Z,5.10
2019-01-10T12:05:12.186Z,4.70
2019-01-10T12:08:01.204Z,4.80
2019-01-10T12:13:50.639Z,4.60
2019-01-10T12:16:39.748Z,4.60
2019-01-10T12:19:28.813Z,4.50
2019-01-10T12:22:17.821Z,4.40
2019-01-10T12:24:47.502Z,4.40
2019-01-10T12:27:56.040Z,4.30
2019-01-10T12:30:44.999Z,4.30
2019-01-10T12:33:34.029Z,4.20
2019-01-10T12:36:23.099Z,4.20
2019-01-10T12:39:12.186Z,4.00
2019-01-10T12:42:01.138Z,3.90
2019-01-10T12:44:50.083Z,3.90
2019-01-10T12:47:39.253Z,3.80
2019-01-10T12:50:29.042Z,3.80
2019-01-10T12:53:17.986Z,3.80
2019-01-10T12:59:34.267Z,3.90
2019-01-10T13:02:23.267Z,3.90
2019-01-10T13:05:12.291Z,3.80
2019-01-10T13:08:20.632Z,3.80
2019-01-10T13:11:09.626Z,3.90
2019-01-10T13:13:59.670Z,3.90
2019-01-10T13:17:08.550Z,3.90
2019-01-10T13:20:23.383Z,3.80
2019-01-10T13:23:12.297Z,3.80
2019-01-10T13:26:01.137Z,3.70
2019-01-10T13:28:50.219Z,3.80
2019-01-10T13:34:41.163Z,3.70
2019-01-10T13:37:30.075Z,3.70
2019-01-10T13:40:19.004Z,3.70
2019-01-10T13:46:35.596Z,3.60
2019-01-10T13:49:24.604Z,3.60
2019-01-10T13:52:13.630Z,3.70
2019-01-10T13:55:02.688Z,3.70
2019-01-10T13:57:51.812Z,3.60
2019-01-10T14:00:41.260Z,3.60
2019-01-10T14:03:30.243Z,3.60
2019-01-10T14:11:56.688Z,3.60
2019-01-10T14:14:26.502Z,3.50
2019-01-10T14:17:15.552Z,3.40
2019-01-10T14:20:25.251Z,3.40
2019-01-10T14:23:14.254Z,3.40
2019-01-10T14:26:22.868Z,3.40
2019-01-10T14:29:12.123Z,3.40
2019-01-10T14:32:01.228Z,3.30
2019-01-10T14:34:31.139Z,3.20
2019-01-10T14:37:20.379Z,3.10
2019-01-10T14:39:49.967Z,3.10
2019-01-10T14:42:58.386Z,3.10
2019-01-10T14:46:06.802Z,2.90
2019-01-10T14:48:55.767Z,3.00
2019-01-10T14:52:04.358Z,2.90
2019-01-10T14:54:53.290Z,2.80
2019-01-10T14:57:43.957Z,2.80
2019-01-10T15:00:26.996Z,2.80
2019-01-10T15:03:16.251Z,2.80
2019-01-10T15:06:06.982Z,2.70
2019-01-10T15:08:56.315Z,2.70
2019-01-10T15:12:05.055Z,2.60
2019-01-10T15:14:54.064Z,2.60
2019-01-10T15:17:44.214Z,2.60
2019-01-10T15:20:53.447Z,2.60
2019-01-10T15:23:43.997Z,2.60
2019-01-10T15:29:41.490Z,2.50
2019-01-10T15:32:30.507Z,2.40
2019-01-10T15:35:15.400Z,2.30
2019-01-10T15:38:04.312Z,2.30
2019-01-10T15:40:53.463Z,2.30
2019-01-10T15:46:52.164Z,2.30
2019-01-10T15:49:41.167Z,2.20
2019-01-10T15:52:30.294Z,2.20
2019-01-10T15:55:20.194Z,2.10
2019-01-10T15:58:09.132Z,2.10
2019-01-10T16:00:58.071Z,2.10
2019-01-10T16:03:47.027Z,2.00
2019-01-10T16:06:36.099Z,2.00
2019-01-10T16:09:25.100Z,1.90
2019-01-10T16:12:13.941Z,1.90
2019-01-10T16:15:23.116Z,1.90
2019-01-10T16:18:31.429Z,1.90
2019-01-10T16:21:20.296Z,1.90
2019-01-10T16:24:09.222Z,1.80
2019-01-10T16:27:17.524Z,1.80
2019-01-10T16:30:27.423Z,1.80
2019-01-10T16:33:37.226Z,1.80
2019-01-10T16:36:38.645Z,1.80
2019-01-10T16:39:08.750Z,1.80
2019-01-10T16:41:38.560Z,1.80
2019-01-10T16:44:27.676Z,1.80
2019-01-10T16:47:16.804Z,1.90
2019-01-10T16:50:26.499Z,1.90
2019-01-10T16:53:15.606Z,1.90
2019-01-10T16:56:04.630Z,1.90
2019-01-10T16:58:53.596Z,1.90
2019-01-10T17:02:01.934Z,1.90
2019-01-10T17:04:50.930Z,1.90
2019-01-10T17:07:39.762Z,2.00
2019-01-10T17:10:31.642Z,2.00
2019-01-10T17:13:20.577Z,1.90
2019-01-10T17:18:58.260Z,1.90
2019-01-10T17:21:47.357Z,1.90
2019-01-10T17:24:36.296Z,1.90
2019-01-10T17:27:44.648Z,1.80
2019-01-10T17:30:35.152Z,1.70
2019-01-10T17:33:24.144Z,1.70
2019-01-10T17:36:07.399Z,1.60
2019-01-10T17:38:56.267Z,1.60
2019-01-10T17:41:45.301Z,1.60
2019-01-10T17:44:34.157Z,1.60
2019-01-10T17:47:44.151Z,1.60
2019-01-10T17:50:52.659Z,1.60
2019-01-10T17:53:41.579Z,1.60
2019-01-10T17:59:50.999Z,1.70
2019-01-10T18:02:59.384Z,1.70
2019-01-10T18:05:48.295Z,1.80
2019-01-10T18:08:37.239Z,1.80
2019-01-10T18:11:26.319Z,1.80
2019-01-10T18:14:15.220Z,1.80
2019-01-10T18:17:23.616Z,1.80
2019-01-10T18:20:33.363Z,1.80
2019-01-10T18:23:22.323Z,1.80
2019-01-10T18:26:11.251Z,1.80
2019-01-10T18:29:00.328Z,1.80
2019-01-10T18:34:51.552Z,1.90
2019-01-10T18:37:40.538Z,1.90
2019-01-10T18:40:29.841Z,1.90
2019-01-10T18:43:18.728Z,1.90
2019-01-10T18:46:07.560Z,1.80
2019-01-10T18:48:56.530Z,1.80
2019-01-10T18:51:45.443Z,1.80
2019-01-10T18:55:00.028Z,1.80
2019-01-10T18:58:16.575Z,1.80
2019-01-10T19:01:13.928Z,1.80
2019-01-10T19:04:02.787Z,1.90
2019-01-10T19:07:11.191Z,1.90
2019-01-10T19:10:00.224Z,1.90
2019-01-10T19:12:49.255Z,1.90
2019-01-10T19:15:57.622Z,1.90
2019-01-10T19:18:45.765Z,1.90
2019-01-10T19:21:33.903Z,1.80
2019-01-10T19:24:41.467Z,1.90
2019-01-10T19:27:29.523Z,1.90
2019-01-10T19:30:17.552Z,1.90
2019-01-10T19:33:05.570Z,1.90
2019-01-10T19:35:47.579Z,1.90
2019-01-10T19:38:29.808Z,1.90
2019-01-10T19:41:09.620Z,1.90
2019-01-10T19:43:57.887Z,1.90
2019-01-10T19:46:45.874Z,1.90
2019-01-10T19:52:23.328Z,1.90
2019-01-10T19:58:00.494Z,1.90
2019-01-10T20:00:48.490Z,2.00
2019-01-10T20:03:29.654Z,2.00
2019-01-10T20:06:11.465Z,1.90
2019-01-10T20:08:53.696Z,1.90
2019-01-10T20:11:35.274Z,1.90
2019-01-10T20:14:17.335Z,1.90
2019-01-10T20:16:59.179Z,1.90
2019-01-10T20:19:41.161Z,1.90
2019-01-10T20:22:22.885Z,1.90
2019-01-10T20:25:04.663Z,2.00
2019-01-10T20:27:46.711Z,1.90
2019-01-10T20:30:28.618Z,1.90
2019-01-10T20:33:09.852Z,1.90
2019-01-10T20:35:51.158Z,1.90
2019-01-10T20:38:32.331Z,1.90
2019-01-10T20:41:01.093Z,1.90
2019-01-10T20:44:08.530Z,1.80
2019-01-10T20:47:16.011Z,1.80
2019-01-10T20:50:23.590Z,1.80
2019-01-10T20:53:11.541Z,1.80
2019-01-10T20:56:01.795Z,1.90
2019-01-10T20:58:49.818Z,1.90
2019-01-10T21:01:38.236Z,2.00
2019-01-10T21:04:27.719Z,2.00
2019-01-10T21:07:35.532Z,2.00
2019-01-10T21:10:23.620Z,2.10
2019-01-10T21:13:11.720Z,2.10
2019-01-10T21:16:00.127Z,2.00
2019-01-10T21:18:48.142Z,2.00
2019-01-10T21:21:36.323Z,2.10
2019-01-10T21:24:24.270Z,2.00
2019-01-10T21:27:12.391Z,1.90
2019-01-10T21:30:00.511Z,1.90
2019-01-10T21:35:45.981Z,1.90
2019-01-10T21:38:27.917Z,1.90
2019-01-10T21:41:10.350Z,1.90
2019-01-10T21:43:52.210Z,1.90
2019-01-10T21:46:33.974Z,1.80
2019-01-10T21:49:15.824Z,1.80
2019-01-10T21:51:57.151Z,1.80
2019-01-10T21:54:39.176Z,1.80
2019-01-10T21:57:18.830Z,1.80
2019-01-10T22:00:06.785Z,1.80
2019-01-10T22:02:55.057Z,1.80
2019-01-10T22:05:24.021Z,1.80
2019-01-10T22:08:31.500Z,1.80
2019-01-10T22:11:19.462Z,1.70
2019-01-10T22:14:07.751Z,1.70
2019-01-10T22:16:56.571Z,1.70
2019-01-10T22:19:45.538Z,1.60
2019-01-10T22:22:34.559Z,1.60
2019-01-10T22:25:43.073Z,1.60
2019-01-10T22:28:32.467Z,1.50
2019-01-10T22:31:21.413Z,1.50
2019-01-10T22:36:46.354Z,1.50
2019-01-10T22:39:35.303Z,1.50
2019-01-10T22:42:24.225Z,1.50
2019-01-10T22:45:33.873Z,1.50
2019-01-10T22:48:24.555Z,1.40
2019-01-10T22:51:13.586Z,1.40
2019-01-10T22:54:02.567Z,1.50
2019-01-10T22:56:51.555Z,1.40
2019-01-10T22:59:42.138Z,1.40
2019-01-10T23:02:25.103Z,1.40
2019-01-10T23:05:14.031Z,1.50
2019-01-10T23:08:03.015Z,1.40
2019-01-10T23:11:12.674Z,1.50
2019-01-10T23:14:01.791Z,1.50
2019-01-10T23:17:10.167Z,1.50
2019-01-10T23:20:18.624Z,1.40
2019-01-10T23:23:27.002Z,1.40
2019-01-10T23:26:15.867Z,1.40
2019-01-10T23:29:05.004Z,1.40
2019-01-10T23:31:55.576Z,1.40
2019-01-10T23:34:38.501Z,1.40
2019-01-10T23:37:27.658Z,1.50
2019-01-10T23:40:16.609Z,1.50
2019-01-10T23:43:05.743Z,1.50
2019-01-10T23:49:00.558Z,1.50
2019-01-10T23:51:47.222Z,1.50
2019-01-10T23:54:17.033Z,1.50
2019-01-10T23:57:05.954Z,1.50
